Jones - eastern half: Past 24 Hour Conditions

 

Hall Beach Airport

02:00 AM EDT 23 October 2014
This table is a summary of hourly weather conditions for the past 24 hours.
Date / Time
(EDT)
Wind(knots) Conditions Visibility(km) Pressure(kPa) Air tempC) Relative humidity(%) Dew pointC) Wind Chill
23 October 2014
2:00 NNW 17 gust 23 Clear 11 101.8 -22 81 -24 -35
1:00 NW 19 Clear 16 101.7 -22 80 -25 -37
0:00 WNW 14 gust 19 Clear 16 101.7 -24 81 -26 -37
22 October 2014
23:00 NW 20 Clear 16 101.6 -23 82 -26 -38
22:00 NW 22 Mist 6 101.6 -23 83 -25 -38
21:00 NW 21 gust 26 Mist 5 101.6 -22 82 -25 -37
20:00 NW 17 Light Snow 19 101.5 -22 83 -24 -35
19:00 NW 16 Drifting Snow 24 101.5 -21 82 -24 -34
18:00 NW 19 Drifting Snow 24 101.4 -20 84 -22 -34
17:00 NW 16 Drifting Snow 24 101.3 -19 85 -21 -31
16:00 NW 14 Drifting Snow 24 101.2 -17 87 -19 -28
15:00 NNW 17 Drifting Snow 24 101.1 -15 90 -17 -27
14:00 NNW 14 gust 21 Drifting Snow 24 101.0 -14 91 -16 -25
13:00 NNW 15 Drifting Snow 24 100.9 -14 91 -15 -24
12:00 NNW 19 Light Snowshower 13 100.7 -10 94 -11 -20
11:00 N 18 Light Snow 19 100.6 -9 95 -9 -18
10:00 NW 13 Light Snow 24 100.6 -11 94 -12 -19
9:00 NNW 15 Ice Crystals 3 100.6 -10 94 -11 -19
8:00 NNW 16 Ice Crystals 6 100.5 -10 94 -11 -19
7:00 N 17 Light Snow 2 100.4 -9 95 -10 -18
6:00 N 14 Light Snow 2 100.4 -8 95 -9 -17
5:00 N 12 Light Snow 16 100.4 -8 95 -9 -16
4:00 NNE 9 Light Snow 15 100.3 -9 95 -10 -16
3:00 NNE 7 Light Snow 10 100.3 -9 95 -10 -15
2:00 NNW 8 Light Snow 11 100.4 -11 94 -12 -18
 
Map of Arctic - Eastern Arctic marine weather areas Baker Lake Airport Chesterfield Inlet Airport Coral Harbour Airport Gjoa Haven Airport Kugaaruk Airport Rankin Inlet Airport Shepherd Bay Airport Whale Cove Airport Arctic Bay Brevoort Island Qikiqtarjuaq Airport Cape Dorset Airport Cape Dyer Cape Hooper Clyde Airport Grise Fiord Airport Hall Beach Airport Igloolik Airport Iqaluit Airport Longstaff Bluff Pangnirtung Airport Pond Inlet Airport Repulse Bay Airport Resolute Airport Resolution Island Rowley Island Airport Taloyoak Airport Wager Bay Akulivik Airport Ivujivik Airport Puvirnituq Airport Kangiqsujuaq Airport Kangirsuk Airport Quaqtaq Airport Tasiujaq Airport Cape Kakkiviak Cape Kiglapait Nain Airport Saglek Cape Mercy Kimmirut Airport Aupaluk Airport Salluit Airport Kangiqsualujjuaq Airport Fort Ross
Legend: buoyBuoy land stationLand Station